createdAt,value
2023-05-18T00:00:53.227Z,2.35
2023-05-18T00:01:53.226Z,2.31
2023-05-18T00:02:53.318Z,2.31
2023-05-18T00:03:53.321Z,2.30
2023-05-18T00:04:53.347Z,2.34
2023-05-18T00:05:53.208Z,2.31
2023-05-18T00:06:53.210Z,2.28
2023-05-18T00:07:53.198Z,2.28
2023-05-18T00:08:53.263Z,2.27
2023-05-18T00:09:53.352Z,2.28
2023-05-18T00:10:53.360Z,2.24
2023-05-18T00:11:53.427Z,2.26
2023-05-18T00:12:53.499Z,2.27
2023-05-18T00:13:53.547Z,2.25
2023-05-18T00:14:53.609Z,2.23
2023-05-18T00:15:53.693Z,2.20
2023-05-18T00:16:53.732Z,2.19
2023-05-18T00:17:53.837Z,2.21
2023-05-18T00:18:53.807Z,2.21
2023-05-18T00:19:53.810Z,2.21
2023-05-18T00:20:53.786Z,2.22
2023-05-18T00:21:53.772Z,2.21
2023-05-18T00:22:53.761Z,2.22
2023-05-18T00:23:53.760Z,2.23
2023-05-18T00:24:53.761Z,2.21
2023-05-18T00:25:53.765Z,2.22
2023-05-18T00:26:53.749Z,2.24
2023-05-18T00:27:53.772Z,2.21
2023-05-18T00:28:53.739Z,2.23
2023-05-18T00:29:53.737Z,2.20
2023-05-18T00:30:53.756Z,2.20
2023-05-18T00:31:53.897Z,2.20
2023-05-18T00:32:53.976Z,2.18
2023-05-18T00:33:53.940Z,2.17
2023-05-18T00:34:54.008Z,2.17
2023-05-18T00:35:54.062Z,2.17
2023-05-18T00:36:54.135Z,2.15
2023-05-18T00:37:54.198Z,2.14
2023-05-18T00:38:54.241Z,2.13
2023-05-18T00:39:54.300Z,2.14
2023-05-18T00:40:54.349Z,2.17
2023-05-18T00:41:54.417Z,2.14
2023-05-18T00:42:54.497Z,2.13
2023-05-18T00:43:54.543Z,2.16
2023-05-18T00:44:54.601Z,2.11
2023-05-18T00:45:54.718Z,2.10
2023-05-18T00:46:54.704Z,2.11
2023-05-18T00:47:54.806Z,2.12
2023-05-18T00:48:54.839Z,2.12
2023-05-18T00:49:54.877Z,2.12
2023-05-18T00:50:54.930Z,2.10
2023-05-18T00:51:54.996Z,2.13
2023-05-18T00:52:55.064Z,2.11
2023-05-18T00:53:55.140Z,2.11
2023-05-18T00:54:55.210Z,2.11
2023-05-18T00:55:55.263Z,2.07
2023-05-18T00:56:55.317Z,2.09
2023-05-18T00:57:55.392Z,2.09
2023-05-18T00:58:55.443Z,2.07
2023-05-18T00:59:55.511Z,2.06
2023-05-18T01:00:55.583Z,2.05
2023-05-18T01:01:55.641Z,2.03
2023-05-18T01:02:55.780Z,2.08
2023-05-18T01:03:55.735Z,2.03
2023-05-18T01:04:55.803Z,2.03
2023-05-18T01:05:55.869Z,2.04
2023-05-18T01:06:55.929Z,2.03
2023-05-18T01:07:56.005Z,2.02
2023-05-18T01:08:56.052Z,2.05
2023-05-18T01:09:56.129Z,2.02
2023-05-18T01:10:56.197Z,2.03
2023-05-18T01:11:56.254Z,2.01
2023-05-18T01:12:56.324Z,1.99
2023-05-18T01:13:56.377Z,2.02
2023-05-18T01:14:56.444Z,2.01
2023-05-18T01:15:56.507Z,2.02
2023-05-18T01:16:56.578Z,1.99
2023-05-18T01:17:56.697Z,2.00
2023-05-18T01:18:56.753Z,2.00
2023-05-18T01:19:56.773Z,2.00
2023-05-18T01:20:56.838Z,1.98
2023-05-18T01:21:56.905Z,2.00
2023-05-18T01:22:56.964Z,2.00
2023-05-18T01:23:56.962Z,2.01
2023-05-18T01:24:56.969Z,2.01
2023-05-18T01:25:56.969Z,2.01
2023-05-18T01:26:56.968Z,1.99
2023-05-18T01:27:56.967Z,2.00
2023-05-18T01:28:57.146Z,1.99
2023-05-18T01:29:56.954Z,1.99
2023-05-18T01:30:56.961Z,1.99
2023-05-18T01:31:56.941Z,1.99
2023-05-18T01:32:56.984Z,1.99
2023-05-18T01:33:56.946Z,1.97
2023-05-18T01:34:56.950Z,1.97
2023-05-18T01:35:56.989Z,2.00
2023-05-18T01:36:57.058Z,1.96
2023-05-18T01:37:57.166Z,1.96
2023-05-18T01:38:57.253Z,1.94
2023-05-18T01:39:57.329Z,1.97
2023-05-18T01:40:57.264Z,1.97
2023-05-18T01:41:57.267Z,1.97
2023-05-18T01:42:57.268Z,1.96
2023-05-18T01:43:57.254Z,1.95
2023-05-18T01:44:57.254Z,1.96
2023-05-18T01:45:57.275Z,1.96
2023-05-18T01:46:57.388Z,1.94
2023-05-18T01:47:57.467Z,1.95
2023-05-18T01:48:57.296Z,1.96
2023-05-18T01:49:57.373Z,1.92
2023-05-18T01:50:57.477Z,1.92
2023-05-18T01:51:57.452Z,1.93
2023-05-18T01:52:57.518Z,1.93
2023-05-18T01:53:57.451Z,1.93
2023-05-18T01:54:57.471Z,1.94
2023-05-18T01:55:57.405Z,1.92
2023-05-18T01:56:57.401Z,1.91
2023-05-18T01:57:57.395Z,1.91
2023-05-18T01:58:57.393Z,1.90
2023-05-18T01:59:57.466Z,1.89
2023-05-18T02:00:57.499Z,1.91
2023-05-18T02:01:59.354Z,1.89
2023-05-18T02:02:57.684Z,1.88
2023-05-18T02:03:57.752Z,1.87
2023-05-18T02:04:57.748Z,1.88
2023-05-18T02:05:57.811Z,1.88
2023-05-18T02:06:57.882Z,1.86
2023-05-18T02:07:57.957Z,1.88
2023-05-18T02:08:58.024Z,1.87
2023-05-18T02:09:58.092Z,1.87
2023-05-18T02:10:58.159Z,1.86
2023-05-18T02:11:58.224Z,1.85
2023-05-18T02:12:58.291Z,1.87
2023-05-18T02:13:58.320Z,1.85
2023-05-18T02:14:58.371Z,1.86
2023-05-18T02:15:58.409Z,1.86
2023-05-18T02:16:58.409Z,1.83
2023-05-18T02:17:58.612Z,1.85
2023-05-18T02:18:58.505Z,1.82
2023-05-18T02:19:58.573Z,1.85
2023-05-18T02:20:58.575Z,1.85
2023-05-18T02:21:58.581Z,1.85
2023-05-18T02:22:58.571Z,1.86
2023-05-18T02:23:58.574Z,1.85
2023-05-18T02:24:58.585Z,1.85
2023-05-18T02:25:58.576Z,1.85
2023-05-18T02:26:58.563Z,1.85
2023-05-18T02:27:58.593Z,1.83
2023-05-18T02:28:58.584Z,1.84
2023-05-18T02:29:58.588Z,1.84
2023-05-18T02:30:58.586Z,1.85
2023-05-18T02:31:58.617Z,1.83
2023-05-18T02:32:58.606Z,1.84
2023-05-18T02:33:58.586Z,1.84
2023-05-18T02:34:58.575Z,1.84
2023-05-18T02:35:58.572Z,1.84
2023-05-18T02:36:58.579Z,1.83
2023-05-18T02:37:58.570Z,1.83
2023-05-18T02:38:58.562Z,1.82
2023-05-18T02:39:58.568Z,1.82
2023-05-18T02:40:58.570Z,1.80
2023-05-18T02:41:58.591Z,1.78
2023-05-18T02:42:58.633Z,1.82
2023-05-18T02:43:58.690Z,1.81
2023-05-18T02:44:58.823Z,1.79
2023-05-18T02:45:58.833Z,1.79
2023-05-18T02:46:58.848Z,1.78
2023-05-18T02:47:58.941Z,1.82
2023-05-18T02:48:58.927Z,1.77
2023-05-18T02:49:58.983Z,1.76
2023-05-18T02:50:58.989Z,1.77
2023-05-18T02:51:58.978Z,1.77
2023-05-18T02:52:58.964Z,1.78
2023-05-18T02:53:58.977Z,1.78
2023-05-18T02:54:58.992Z,1.78
2023-05-18T02:55:58.956Z,1.77
2023-05-18T02:56:58.956Z,1.77
2023-05-18T02:57:58.941Z,1.78
2023-05-18T02:58:58.938Z,1.78
2023-05-18T02:59:58.942Z,1.76
2023-05-18T03:00:58.917Z,1.77
2023-05-18T03:01:58.947Z,1.75
2023-05-18T03:02:58.955Z,1.74
2023-05-18T03:03:58.937Z,1.77
2023-05-18T03:04:59.026Z,1.73
2023-05-18T03:05:59.019Z,1.73
2023-05-18T03:06:59.045Z,1.75
2023-05-18T03:07:59.072Z,1.73
2023-05-18T03:08:59.188Z,1.71
2023-05-18T03:09:59.128Z,1.75
2023-05-18T03:10:59.179Z,1.73
2023-05-18T03:11:59.234Z,1.73
2023-05-18T03:12:59.273Z,1.71
2023-05-18T03:13:59.299Z,1.72
2023-05-18T03:14:59.366Z,1.72
2023-05-18T03:15:59.392Z,1.74
2023-05-18T03:16:59.494Z,1.71
2023-05-18T03:17:59.649Z,1.72
2023-05-18T03:18:59.617Z,1.71
2023-05-18T03:19:59.671Z,1.71
2023-05-18T03:20:59.728Z,1.71
2023-05-18T03:21:59.843Z,1.71
2023-05-18T03:22:59.865Z,1.73
2023-05-18T03:23:59.918Z,1.67
2023-05-18T03:24:59.963Z,1.70
2023-05-18T03:26:00.001Z,1.70
2023-05-18T03:27:00.025Z,1.72
2023-05-18T03:28:00.110Z,1.67
2023-05-18T03:29:00.144Z,1.69
2023-05-18T03:30:00.211Z,1.71
2023-05-18T03:31:00.241Z,1.71
2023-05-18T03:32:00.284Z,1.68
2023-05-18T03:33:00.420Z,1.66
2023-05-18T03:34:00.382Z,1.68
2023-05-18T03:35:00.446Z,1.69
2023-05-18T03:36:00.499Z,1.69
2023-05-18T03:37:00.556Z,1.65
2023-05-18T03:38:00.609Z,1.67
2023-05-18T03:39:00.650Z,1.64
2023-05-18T03:40:00.715Z,1.66
2023-05-18T03:41:00.729Z,1.66
2023-05-18T03:42:00.780Z,1.65
2023-05-18T03:43:00.845Z,1.62
2023-05-18T03:44:00.939Z,1.65
2023-05-18T03:45:00.935Z,1.64
2023-05-18T03:46:01.022Z,1.63
2023-05-18T03:47:01.014Z,1.65
2023-05-18T03:48:01.086Z,1.63
2023-05-18T03:49:01.091Z,1.62
2023-05-18T03:50:01.191Z,1.61
2023-05-18T03:51:01.140Z,1.61
2023-05-18T03:52:01.148Z,1.62
2023-05-18T03:53:01.160Z,1.63
2023-05-18T03:54:01.168Z,1.64
2023-05-18T03:55:01.175Z,1.63
2023-05-18T03:56:01.182Z,1.63
2023-05-18T03:57:01.169Z,1.63
2023-05-18T03:58:01.154Z,1.64
2023-05-18T03:59:01.158Z,1.62
2023-05-18T04:00:01.240Z,1.61
2023-05-18T04:01:01.205Z,1.61
2023-05-18T04:02:01.317Z,1.61
2023-05-18T04:03:01.389Z,1.59
2023-05-18T04:04:01.477Z,1.59
2023-05-18T04:05:01.396Z,1.60
2023-05-18T04:06:01.411Z,1.60
2023-05-18T04:07:01.427Z,1.58
2023-05-18T04:08:01.448Z,1.59
2023-05-18T04:09:01.463Z,1.56
2023-05-18T04:10:01.599Z,1.62
2023-05-18T04:11:01.598Z,1.58
2023-05-18T04:12:01.625Z,1.57
2023-05-18T04:13:01.675Z,1.59
2023-05-18T04:14:01.744Z,1.58
2023-05-18T04:15:01.797Z,1.55
2023-05-18T04:16:01.874Z,1.57
2023-05-18T04:17:01.898Z,1.56
2023-05-18T04:18:02.055Z,1.55
2023-05-18T04:19:02.135Z,1.56
2023-05-18T04:20:02.106Z,1.55
2023-05-18T04:21:02.143Z,1.55
2023-05-18T04:22:02.187Z,1.57
2023-05-18T04:23:02.236Z,1.55
2023-05-18T04:24:02.272Z,1.57
2023-05-18T04:25:02.332Z,1.55
2023-05-18T04:26:02.346Z,1.52
2023-05-18T04:27:02.379Z,1.55
2023-05-18T04:28:02.386Z,1.54
2023-05-18T04:29:02.444Z,1.54
2023-05-18T04:30:02.510Z,1.52
2023-05-18T04:31:02.522Z,1.52
2023-05-18T04:32:02.599Z,1.55
2023-05-18T04:33:02.630Z,1.53
2023-05-18T04:34:02.605Z,1.51
2023-05-18T04:35:02.631Z,1.54
2023-05-18T04:36:02.675Z,1.53
2023-05-18T04:37:02.719Z,1.53
2023-05-18T04:38:02.832Z,1.52
2023-05-18T04:39:02.815Z,1.54
2023-05-18T04:40:02.850Z,1.52
2023-05-18T04:41:02.878Z,1.48
2023-05-18T04:42:02.916Z,1.49
2023-05-18T04:43:02.937Z,1.51
2023-05-18T04:44:02.961Z,1.49
2023-05-18T04:45:03.023Z,1.48
2023-05-18T04:46:03.081Z,1.50
2023-05-18T04:47:03.060Z,1.49
2023-05-18T04:48:03.151Z,1.46
2023-05-18T04:49:03.116Z,1.45
2023-05-18T04:50:03.136Z,1.48
2023-05-18T04:51:03.156Z,1.47
2023-05-18T04:52:03.175Z,1.47
2023-05-18T04:53:03.178Z,1.45
2023-05-18T04:54:03.227Z,1.44
2023-05-18T04:55:03.210Z,1.46
2023-05-18T04:56:03.221Z,1.44
2023-05-18T04:57:03.248Z,1.45
2023-05-18T04:58:03.262Z,1.44
2023-05-18T04:59:03.264Z,1.44
2023-05-18T05:00:03.322Z,1.42
2023-05-18T05:01:03.361Z,1.44
2023-05-18T05:02:03.352Z,1.42
2023-05-18T05:03:03.415Z,1.42
2023-05-18T05:04:03.351Z,1.42
2023-05-18T05:05:03.362Z,1.43
2023-05-18T05:06:03.361Z,1.42
2023-05-18T05:07:03.368Z,1.45
2023-05-18T05:08:03.366Z,1.41
2023-05-18T05:09:03.385Z,1.42
2023-05-18T05:10:03.374Z,1.42
2023-05-18T05:11:03.381Z,1.41
2023-05-18T05:12:03.460Z,1.43
2023-05-18T05:13:03.517Z,1.43
2023-05-18T05:14:03.613Z,1.41
2023-05-18T05:15:03.656Z,1.42
2023-05-18T05:16:03.759Z,1.39
2023-05-18T05:17:03.792Z,1.40
2023-05-18T05:18:03.865Z,1.38
2023-05-18T05:19:03.934Z,1.40
2023-05-18T05:20:03.907Z,1.39
2023-05-18T05:21:03.935Z,1.40
2023-05-18T05:22:03.969Z,1.37
2023-05-18T05:23:04.058Z,1.38
2023-05-18T05:24:04.027Z,1.39
2023-05-18T05:25:06.045Z,1.36
2023-05-18T05:26:04.137Z,1.38
2023-05-18T05:27:04.121Z,1.35
2023-05-18T05:28:04.150Z,1.37
2023-05-18T05:29:04.215Z,1.35
2023-05-18T05:30:04.272Z,1.37
2023-05-18T05:31:04.364Z,1.37
2023-05-18T05:32:04.418Z,1.35
2023-05-18T05:33:04.529Z,1.34
2023-05-18T05:34:04.460Z,1.34
2023-05-18T05:35:04.570Z,1.34
2023-05-18T05:36:04.590Z,1.33
2023-05-18T05:37:04.600Z,1.33
2023-05-18T05:38:04.603Z,1.34
2023-05-18T05:39:04.598Z,1.34
2023-05-18T05:40:04.617Z,1.33
2023-05-18T05:41:04.619Z,1.35
2023-05-18T05:42:04.642Z,1.35
2023-05-18T05:43:04.654Z,1.32
2023-05-18T05:44:04.656Z,1.33
2023-05-18T05:45:04.651Z,1.32
2023-05-18T05:46:04.701Z,1.33
2023-05-18T05:47:04.889Z,1.32
2023-05-18T05:48:04.890Z,1.32
2023-05-18T05:49:04.984Z,1.34
2023-05-18T05:50:04.947Z,1.29
2023-05-18T05:51:05.028Z,1.32
2023-05-18T05:52:05.021Z,1.30
2023-05-18T05:53:05.052Z,1.31
2023-05-18T05:54:05.056Z,1.29
2023-05-18T05:55:05.084Z,1.30
2023-05-18T05:56:05.126Z,1.29
2023-05-18T05:57:05.159Z,1.29
2023-05-18T05:58:05.190Z,1.28
2023-05-18T05:59:05.260Z,1.28
2023-05-18T06:00:05.316Z,1.27
2023-05-18T06:01:05.338Z,1.26
2023-05-18T06:02:05.403Z,1.29
2023-05-18T06:03:05.406Z,1.27
2023-05-18T06:04:05.395Z,1.28
2023-05-18T06:05:05.376Z,1.28
2023-05-18T06:06:05.353Z,1.28
2023-05-18T06:07:05.427Z,1.27
2023-05-18T06:08:05.347Z,1.26
2023-05-18T06:09:05.360Z,1.27
2023-05-18T06:10:05.356Z,1.26
2023-05-18T06:11:05.318Z,1.26
2023-05-18T06:12:05.320Z,1.26
2023-05-18T06:13:05.319Z,1.25
2023-05-18T06:14:05.323Z,1.24
2023-05-18T06:15:05.389Z,1.25
2023-05-18T06:16:05.454Z,1.25
2023-05-18T06:17:05.499Z,1.24
2023-05-18T06:18:05.559Z,1.23
2023-05-18T06:19:05.599Z,1.28
2023-05-18T06:20:05.572Z,1.23
2023-05-18T06:21:05.637Z,1.23
2023-05-18T06:22:05.679Z,1.24
2023-05-18T06:23:05.748Z,1.22
2023-05-18T06:24:05.782Z,1.22
2023-05-18T06:25:05.935Z,1.21
2023-05-18T06:26:05.962Z,1.21
2023-05-18T06:27:06.066Z,1.21
2023-05-18T06:28:06.100Z,1.21
2023-05-18T06:29:06.175Z,1.21
2023-05-18T06:30:06.240Z,1.19
2023-05-18T06:31:06.344Z,1.22
2023-05-18T06:32:06.499Z,1.21
2023-05-18T06:33:06.513Z,1.21
2023-05-18T06:34:06.519Z,1.20
2023-05-18T06:35:06.579Z,1.19
2023-05-18T06:36:06.612Z,1.20
2023-05-18T06:37:06.660Z,1.18
2023-05-18T06:38:06.720Z,1.17
2023-05-18T06:39:06.764Z,1.18
2023-05-18T06:40:06.830Z,1.19
2023-05-18T06:41:06.867Z,1.19
2023-05-18T06:42:06.927Z,1.17
2023-05-18T06:43:06.981Z,1.18
2023-05-18T06:44:07.044Z,1.17
2023-05-18T06:45:07.042Z,1.17
2023-05-18T06:46:07.045Z,1.17
2023-05-18T06:47:07.062Z,1.18
2023-05-18T06:48:07.072Z,1.18
2023-05-18T06:49:07.125Z,1.16
2023-05-18T06:50:07.041Z,1.18
2023-05-18T06:51:07.028Z,1.17
2023-05-18T06:52:07.033Z,1.16
2023-05-18T06:53:07.072Z,1.15
2023-05-18T06:54:07.124Z,1.15
2023-05-18T06:55:07.199Z,1.14
2023-05-18T06:56:07.262Z,1.14
2023-05-18T06:57:07.362Z,1.14
2023-05-18T06:58:07.406Z,1.15
2023-05-18T06:59:07.473Z,1.14
2023-05-18T07:00:07.542Z,1.13
2023-05-18T07:01:07.656Z,1.14
2023-05-18T07:02:07.714Z,1.14
2023-05-18T07:03:07.910Z,1.12
2023-05-18T07:04:08.062Z,1.12
2023-05-18T07:05:07.936Z,1.13
2023-05-18T07:06:08.002Z,1.14
2023-05-18T07:07:08.051Z,1.11
2023-05-18T07:08:08.119Z,1.11
2023-05-18T07:09:08.162Z,1.12
2023-05-18T07:10:08.247Z,1.10
2023-05-18T07:11:08.304Z,1.11
2023-05-18T07:12:08.353Z,1.10
2023-05-18T07:13:08.454Z,1.11
2023-05-18T07:14:08.542Z,1.10
2023-05-18T07:15:08.597Z,1.10
2023-05-18T07:16:08.708Z,1.08
2023-05-18T07:17:08.687Z,1.08
2023-05-18T07:18:08.800Z,1.09
2023-05-18T07:19:08.911Z,1.08
2023-05-18T07:20:08.871Z,1.08
2023-05-18T07:21:08.939Z,1.08
2023-05-18T07:22:09.015Z,1.09
2023-05-18T07:23:09.081Z,1.08
2023-05-18T07:24:09.117Z,1.08
2023-05-18T07:25:09.183Z,1.08
2023-05-18T07:26:09.251Z,1.07
2023-05-18T07:27:09.294Z,1.07
2023-05-18T07:28:09.384Z,1.07
2023-05-18T07:29:09.433Z,1.07
2023-05-18T07:30:09.518Z,1.06
2023-05-18T07:31:09.554Z,1.08
2023-05-18T07:32:09.611Z,1.08
2023-05-18T07:33:09.731Z,1.07
2023-05-18T07:34:09.751Z,1.06
2023-05-18T07:35:09.828Z,1.07
2023-05-18T07:36:09.865Z,1.08
2023-05-18T07:37:09.917Z,1.08
2023-05-18T07:38:10.071Z,1.08
2023-05-18T07:39:10.030Z,1.06
2023-05-18T07:40:10.108Z,1.07
2023-05-18T07:41:10.154Z,1.08
2023-05-18T07:42:10.241Z,1.06
2023-05-18T07:43:10.273Z,1.05
2023-05-18T07:44:10.343Z,1.08
2023-05-18T07:45:10.411Z,1.06
2023-05-18T07:46:10.471Z,1.05
2023-05-18T07:47:10.760Z,1.04
2023-05-18T07:48:10.706Z,1.04
2023-05-18T07:49:10.653Z,1.04
2023-05-18T07:50:10.696Z,1.04
2023-05-18T07:51:10.769Z,1.03
2023-05-18T07:52:10.830Z,1.02
2023-05-18T07:53:10.901Z,1.03
2023-05-18T07:54:10.948Z,1.01
2023-05-18T07:55:11.011Z,1.01
2023-05-18T07:56:11.079Z,1.02
2023-05-18T07:57:11.147Z,1.01
2023-05-18T07:58:11.207Z,1.02
2023-05-18T07:59:11.261Z,1.00
2023-05-18T08:00:11.354Z,1.01
2023-05-18T08:01:11.391Z,1.00
2023-05-18T08:02:11.521Z,1.00
2023-05-18T08:03:11.639Z,1.00
2023-05-18T08:04:11.605Z,1.00
2023-05-18T08:05:11.505Z,1.00
2023-05-18T08:06:11.471Z,1.00
2023-05-18T08:07:11.468Z,1.00
2023-05-18T08:08:11.482Z,0.99
2023-05-18T08:09:11.472Z,0.98
2023-05-18T08:10:11.481Z,0.99
2023-05-18T08:11:11.474Z,0.99
2023-05-18T08:12:11.456Z,0.98
2023-05-18T08:13:11.488Z,0.98
2023-05-18T08:14:11.519Z,0.97
2023-05-18T08:15:11.600Z,0.96
2023-05-18T08:16:12.502Z,0.98
2023-05-18T08:17:11.707Z,0.96
2023-05-18T08:18:11.799Z,0.96
2023-05-18T08:19:11.871Z,0.96
2023-05-18T08:20:11.842Z,0.96
2023-05-18T08:21:11.984Z,0.96
2023-05-18T08:22:11.993Z,0.97
2023-05-18T08:23:12.003Z,0.94
2023-05-18T08:24:12.070Z,0.93
2023-05-18T08:25:12.119Z,0.92
2023-05-18T08:26:13.856Z,0.92
2023-05-18T08:27:12.194Z,0.89
2023-05-18T08:28:12.245Z,0.88
2023-05-18T08:29:12.305Z,0.88
2023-05-18T08:30:12.383Z,0.86
2023-05-18T08:31:12.429Z,0.83
2023-05-18T08:32:12.562Z,0.83
2023-05-18T08:33:12.598Z,0.83
2023-05-18T08:34:12.548Z,0.82
2023-05-18T08:35:12.611Z,0.79
2023-05-18T08:36:12.685Z,0.79
2023-05-18T08:37:12.708Z,0.76
2023-05-18T08:38:12.798Z,0.76
2023-05-18T08:39:12.836Z,0.73
2023-05-18T08:40:12.958Z,0.73
2023-05-18T08:41:12.952Z,0.69
2023-05-18T08:42:13.016Z,0.68
2023-05-18T08:43:13.068Z,0.67
2023-05-18T08:44:13.135Z,0.66
2023-05-18T08:45:13.274Z,0.66
2023-05-18T08:46:13.143Z,0.66
2023-05-18T08:47:13.177Z,0.65
2023-05-18T08:48:13.221Z,0.64
2023-05-18T08:49:13.205Z,0.65
2023-05-18T08:50:13.098Z,0.63
2023-05-18T08:51:13.100Z,0.63
2023-05-18T08:52:13.113Z,0.63
2023-05-18T08:53:13.081Z,0.62
2023-05-18T08:54:13.100Z,0.62
2023-05-18T08:55:13.151Z,0.63
2023-05-18T08:56:13.184Z,0.62
2023-05-18T08:57:13.246Z,0.62
2023-05-18T08:58:13.295Z,0.60
2023-05-18T08:59:13.379Z,0.63
2023-05-18T09:00:13.405Z,0.63
2023-05-18T09:01:13.475Z,0.62
2023-05-18T09:02:13.531Z,0.63
2023-05-18T09:03:13.628Z,0.64
2023-05-18T09:04:13.660Z,0.63
2023-05-18T09:05:13.783Z,0.65
2023-05-18T09:06:13.721Z,0.63
2023-05-18T09:07:13.755Z,0.63
2023-05-18T09:08:13.810Z,0.63
2023-05-18T09:09:13.848Z,0.63
2023-05-18T09:10:13.981Z,0.64
2023-05-18T09:11:13.976Z,0.65
2023-05-18T09:12:14.048Z,0.65
2023-05-18T09:13:14.071Z,0.66
2023-05-18T09:14:14.113Z,0.67
2023-05-18T09:15:14.155Z,0.67
2023-05-18T09:16:14.269Z,0.69
2023-05-18T09:17:14.244Z,0.68
2023-05-18T09:18:14.329Z,0.68
2023-05-18T09:19:14.396Z,0.67
2023-05-18T09:20:14.398Z,0.68
2023-05-18T09:21:14.409Z,0.68
2023-05-18T09:22:14.462Z,0.68
2023-05-18T09:23:14.508Z,0.69
2023-05-18T09:24:14.529Z,0.68
2023-05-18T09:25:14.605Z,0.69
2023-05-18T09:26:14.606Z,0.69
2023-05-18T09:27:14.652Z,0.68
2023-05-18T09:28:14.705Z,0.69
2023-05-18T09:29:14.769Z,0.69
2023-05-18T09:30:14.778Z,0.69
2023-05-18T09:31:14.812Z,0.68
2023-05-18T09:32:14.853Z,0.68
2023-05-18T09:33:15.028Z,0.68
2023-05-18T09:34:14.960Z,0.69
2023-05-18T09:35:14.991Z,0.69
2023-05-18T09:36:15.041Z,0.69
2023-05-18T09:37:15.059Z,0.70
2023-05-18T09:38:15.102Z,0.70
2023-05-18T09:39:15.154Z,0.71
2023-05-18T09:40:15.191Z,0.71
2023-05-18T09:41:15.217Z,0.72
2023-05-18T09:42:15.294Z,0.73
2023-05-18T09:43:15.319Z,0.73
2023-05-18T09:44:15.342Z,0.73
2023-05-18T09:45:15.382Z,0.74
2023-05-18T09:46:15.462Z,0.74
2023-05-18T09:47:15.425Z,0.74
2023-05-18T09:48:15.471Z,0.74
2023-05-18T09:49:15.487Z,0.74
2023-05-18T09:50:15.534Z,0.74
2023-05-18T09:51:15.653Z,0.74
2023-05-18T09:52:15.501Z,0.74
2023-05-18T09:53:15.493Z,0.75
2023-05-18T09:54:15.488Z,0.75
2023-05-18T09:55:15.511Z,0.76
2023-05-18T09:56:15.480Z,0.75
2023-05-18T09:57:15.495Z,0.77
2023-05-18T09:58:15.462Z,0.77
2023-05-18T09:59:15.482Z,0.76
2023-05-18T10:00:15.473Z,0.77
2023-05-18T10:01:15.493Z,0.78
2023-05-18T10:02:15.440Z,0.78
2023-05-18T10:03:15.451Z,0.78
2023-05-18T10:04:15.549Z,0.77
2023-05-18T10:05:15.426Z,0.78
2023-05-18T10:06:15.417Z,0.78
2023-05-18T10:07:15.478Z,0.79
2023-05-18T10:08:15.391Z,0.79
2023-05-18T10:09:15.389Z,0.79
2023-05-18T10:10:15.426Z,0.80
2023-05-18T10:11:15.512Z,0.80
2023-05-18T10:12:15.503Z,0.79
2023-05-18T10:13:15.493Z,0.80
2023-05-18T10:14:15.508Z,0.79
2023-05-18T10:15:15.543Z,0.80
2023-05-18T10:16:15.635Z,0.80
2023-05-18T10:17:16.911Z,0.80
2023-05-18T10:18:15.649Z,0.79
2023-05-18T10:19:15.690Z,0.79
2023-05-18T10:20:15.636Z,0.78
2023-05-18T10:21:15.672Z,0.79
2023-05-18T10:22:15.671Z,0.79
2023-05-18T10:23:15.711Z,0.79
2023-05-18T10:24:15.739Z,0.79
2023-05-18T10:25:15.824Z,0.80
2023-05-18T10:26:15.778Z,0.79
2023-05-18T10:27:15.785Z,0.79
2023-05-18T10:28:15.816Z,0.79
2023-05-18T10:29:15.827Z,0.79
2023-05-18T10:30:15.864Z,0.78
2023-05-18T10:31:15.914Z,0.79
2023-05-18T10:32:15.913Z,0.79
2023-05-18T10:33:27.895Z,0.79
2023-05-18T10:34:16.922Z,0.79
2023-05-18T10:35:15.918Z,0.79
2023-05-18T10:36:15.920Z,0.79
2023-05-18T10:37:15.916Z,0.80
2023-05-18T10:38:15.905Z,0.80
2023-05-18T10:39:15.877Z,0.80
2023-05-18T10:40:15.903Z,0.79
2023-05-18T10:41:15.854Z,0.79
2023-05-18T10:42:15.847Z,0.80
2023-05-18T10:43:18.872Z,0.78
2023-05-18T10:44:15.843Z,0.78
2023-05-18T10:45:15.842Z,0.78
2023-05-18T10:46:15.913Z,0.78
2023-05-18T10:47:15.903Z,0.79
2023-05-18T10:48:15.843Z,0.80
2023-05-18T10:49:15.829Z,0.79
2023-05-18T10:50:15.787Z,0.80
2023-05-18T10:51:15.796Z,0.80
2023-05-18T10:52:15.757Z,0.78
2023-05-18T10:53:15.747Z,0.79
2023-05-18T10:54:15.776Z,0.79
2023-05-18T10:55:15.764Z,0.79
2023-05-18T10:56:15.753Z,0.79
2023-05-18T10:57:15.730Z,0.78
2023-05-18T10:58:15.718Z,0.78
2023-05-18T10:59:15.693Z,0.78
2023-05-18T11:00:15.704Z,0.79
2023-05-18T11:01:15.692Z,0.78
2023-05-18T11:02:15.701Z,0.79
2023-05-18T11:03:15.724Z,0.79
2023-05-18T11:04:15.690Z,0.78
2023-05-18T11:05:15.838Z,0.79
2023-05-18T11:06:15.710Z,0.78
2023-05-18T11:07:15.618Z,0.79
2023-05-18T11:08:15.614Z,0.79
2023-05-18T11:09:15.618Z,0.79
2023-05-18T11:10:15.699Z,0.79
2023-05-18T11:11:17.996Z,0.78
2023-05-18T11:12:15.580Z,0.78
2023-05-18T11:13:15.604Z,0.78
2023-05-18T11:14:15.598Z,0.79
2023-05-18T11:15:15.582Z,0.78
2023-05-18T11:16:15.620Z,0.78
2023-05-18T11:17:15.562Z,0.78
2023-05-18T11:18:15.651Z,0.79
2023-05-18T11:19:15.596Z,0.78
2023-05-18T11:20:15.721Z,0.78
2023-05-18T11:21:15.552Z,0.78
2023-05-18T11:22:15.533Z,0.78
2023-05-18T11:23:15.534Z,0.77
2023-05-18T11:24:15.532Z,0.77
2023-05-18T11:25:15.541Z,0.77
2023-05-18T11:26:15.546Z,0.77
2023-05-18T11:27:15.537Z,0.75
2023-05-18T11:28:15.571Z,0.74
2023-05-18T11:29:15.525Z,0.75
2023-05-18T11:30:15.988Z,0.74
2023-05-18T11:31:15.535Z,0.74
2023-05-18T11:32:19.010Z,0.74
2023-05-18T11:33:16.603Z,0.74
2023-05-18T11:34:15.574Z,0.74
2023-05-18T11:35:15.515Z,0.74
2023-05-18T11:36:15.561Z,0.75
2023-05-18T11:37:15.526Z,0.74
2023-05-18T11:38:15.496Z,0.74
2023-05-18T11:39:15.490Z,0.74
2023-05-18T11:40:15.625Z,0.74
2023-05-18T11:41:15.494Z,0.73
2023-05-18T11:42:15.497Z,0.74
2023-05-18T11:43:15.460Z,0.74
2023-05-18T11:44:15.459Z,0.74
2023-05-18T11:45:15.463Z,0.74
2023-05-18T11:46:15.461Z,0.75
2023-05-18T11:47:15.454Z,0.74
2023-05-18T11:48:15.504Z,0.75
2023-05-18T11:49:15.447Z,0.74
2023-05-18T11:50:15.410Z,0.74
2023-05-18T11:51:15.406Z,0.74
2023-05-18T11:52:15.419Z,0.74
2023-05-18T11:53:15.416Z,0.75
2023-05-18T11:54:15.384Z,0.75
2023-05-18T11:55:15.374Z,0.76
2023-05-18T11:56:15.378Z,0.75
2023-05-18T11:57:15.509Z,0.76
2023-05-18T11:58:15.347Z,0.75
2023-05-18T11:59:15.356Z,0.76
2023-05-18T12:00:15.347Z,0.75
2023-05-18T12:01:15.357Z,0.76
2023-05-18T12:02:15.376Z,0.76
2023-05-18T12:03:15.434Z,0.75
2023-05-18T12:04:15.418Z,0.77
2023-05-18T12:05:15.331Z,0.76
2023-05-18T12:06:15.324Z,0.76
2023-05-18T12:07:15.298Z,0.76
2023-05-18T12:08:15.310Z,0.76
2023-05-18T12:09:15.293Z,0.75
2023-05-18T12:10:15.293Z,0.76
2023-05-18T12:11:15.261Z,0.75
2023-05-18T12:12:15.262Z,0.76
2023-05-18T12:13:15.266Z,0.77
2023-05-18T12:14:15.249Z,0.76
2023-05-18T12:15:17.172Z,0.76
2023-05-18T12:16:15.302Z,0.76
2023-05-18T12:17:15.217Z,0.76
2023-05-18T12:18:15.222Z,0.76
2023-05-18T12:19:15.356Z,0.76
2023-05-18T12:20:15.203Z,0.75
2023-05-18T12:21:15.211Z,0.76
2023-05-18T12:22:15.181Z,0.75
2023-05-18T12:23:15.182Z,0.75
2023-05-18T12:24:15.167Z,0.75
2023-05-18T12:25:15.148Z,0.76
2023-05-18T12:26:15.154Z,0.74
2023-05-18T12:27:15.124Z,0.76
2023-05-18T12:28:15.120Z,0.75
2023-05-18T12:29:15.090Z,0.76
2023-05-18T12:30:15.091Z,0.76
2023-05-18T12:31:15.112Z,0.75
2023-05-18T12:32:15.077Z,0.76
2023-05-18T12:33:15.114Z,0.75
2023-05-18T12:34:15.053Z,0.75
2023-05-18T12:35:15.028Z,0.76
2023-05-18T12:36:15.032Z,0.74
2023-05-18T12:37:15.031Z,0.76
2023-05-18T12:38:15.002Z,0.76
2023-05-18T12:39:15.073Z,0.75
2023-05-18T12:40:14.983Z,0.75
2023-05-18T12:41:14.972Z,0.75
2023-05-18T12:42:14.990Z,0.75
2023-05-18T12:43:14.952Z,0.75
2023-05-18T12:44:14.927Z,0.75
2023-05-18T12:45:14.910Z,0.74
2023-05-18T12:46:14.985Z,0.74
2023-05-18T12:47:14.947Z,0.75
2023-05-18T12:48:15.183Z,0.73
2023-05-18T12:49:14.981Z,0.75
2023-05-18T12:50:14.919Z,0.74
2023-05-18T12:51:15.057Z,0.73
2023-05-18T12:52:14.955Z,0.75
2023-05-18T12:53:14.944Z,0.74
2023-05-18T12:54:14.958Z,0.73
2023-05-18T12:55:15.006Z,0.74
2023-05-18T12:56:15.032Z,0.73
2023-05-18T12:57:15.060Z,0.74
2023-05-18T12:58:15.075Z,0.72
2023-05-18T12:59:15.146Z,0.74
2023-05-18T13:00:15.185Z,0.73
2023-05-18T13:01:15.282Z,0.73
2023-05-18T13:02:15.274Z,0.74
2023-05-18T13:03:16.460Z,0.72
2023-05-18T13:04:15.596Z,0.71
2023-05-18T13:05:15.483Z,0.73
2023-05-18T13:06:15.530Z,0.73
2023-05-18T13:07:15.606Z,0.72
2023-05-18T13:08:15.672Z,0.73
2023-05-18T13:09:15.709Z,0.72
2023-05-18T13:10:15.700Z,0.72
2023-05-18T13:11:15.732Z,0.72
2023-05-18T13:12:15.709Z,0.72
2023-05-18T13:13:15.720Z,0.72
2023-05-18T13:14:15.683Z,0.72
2023-05-18T13:15:15.685Z,0.72
2023-05-18T13:16:15.784Z,0.72
2023-05-18T13:17:15.683Z,0.72
2023-05-18T13:18:15.718Z,0.71
2023-05-18T13:19:15.705Z,0.70